sensor_id;sensor_type;location;lat;lon;timestamp;P1;durP1;ratioP1;P2;durP2;ratioP2
13855;SDS011;6998;53.608;9.958;2023-02-11T10:29:59;23.20;;;8.40;;
13855;SDS011;6998;53.608;9.958;2023-02-11T12:05:41;8.55;;;3.83;;
13855;SDS011;6998;53.608;9.958;2023-02-11T12:08:22;11.43;;;4.22;;
13855;SDS011;6998;53.608;9.958;2023-02-11T12:11:04;12.10;;;3.67;;
13855;SDS011;6998;53.608;9.958;2023-02-11T12:16:47;11.98;;;4.10;;
13855;SDS011;6998;53.608;9.958;2023-02-11T12:30:15;9.00;;;3.67;;
13855;SDS011;6998;53.608;9.958;2023-02-11T12:34:03;9.97;;;4.00;;
13855;SDS011;6998;53.608;9.958;2023-02-11T14:14:16;22.27;;;5.17;;
13855;SDS011;6998;53.608;9.958;2023-02-11T14:20:30;22.97;;;5.50;;
13855;SDS011;6998;53.608;9.958;2023-02-11T14:23:15;18.03;;;4.27;;
13855;SDS011;6998;53.608;9.958;2023-02-11T14:25:54;20.60;;;5.03;;
13855;SDS011;6998;53.608;9.958;2023-02-11T14:31:56;17.63;;;4.40;;
13855;SDS011;6998;53.608;9.958;2023-02-11T14:34:45;14.53;;;4.40;;
13855;SDS011;6998;53.608;9.958;2023-02-11T14:37:31;14.23;;;4.70;;
13855;SDS011;6998;53.608;9.958;2023-02-11T14:40:20;27.57;;;10.17;;
13855;SDS011;6998;53.608;9.958;2023-02-11T14:42:52;57.90;;;24.37;;
13855;SDS011;6998;53.608;9.958;2023-02-11T14:45:22;47.72;;;17.80;;
13855;SDS011;6998;53.608;9.958;2023-02-11T15:23:02;9.85;;;2.95;;
13855;SDS011;6998;53.608;9.958;2023-02-11T16:00:33;23.03;;;6.13;;
13855;SDS011;6998;53.608;9.958;2023-02-11T16:13:19;17.00;;;5.07;;
13855;SDS011;6998;53.608;9.958;2023-02-11T16:49:33;30.33;;;8.77;;
13855;SDS011;6998;53.608;9.958;2023-02-11T17:09:36;41.43;;;8.50;;
13855;SDS011;6998;53.608;9.958;2023-02-11T17:12:09;25.77;;;7.73;;
13855;SDS011;6998;53.608;9.958;2023-02-11T17:28:12;25.17;;;9.50;;
13855;SDS011;6998;53.608;9.958;2023-02-11T17:30:39;26.00;;;10.40;;
13855;SDS011;6998;53.608;9.958;2023-02-11T18:05:41;26.43;;;13.17;;
13855;SDS011;6998;53.608;9.958;2023-02-11T18:21:03;29.63;;;12.40;;
13855;SDS011;6998;53.608;9.958;2023-02-11T18:26:52;30.93;;;12.57;;
13855;SDS011;6998;53.608;9.958;2023-02-11T18:54:23;27.93;;;9.80;;
13855;SDS011;6998;53.608;9.958;2023-02-11T18:56:50;27.70;;;9.50;;
13855;SDS011;6998;53.608;9.958;2023-02-11T18:59:17;25.13;;;9.07;;
13855;SDS011;6998;53.608;9.958;2023-02-11T19:15:01;23.80;;;8.67;;
13855;SDS011;6998;53.608;9.958;2023-02-11T19:17:33;27.53;;;9.57;;
13855;SDS011;6998;53.608;9.958;2023-02-11T19:20:01;25.80;;;9.27;;
13855;SDS011;6998;53.608;9.958;2023-02-11T19:22:32;27.23;;;9.77;;
13855;SDS011;6998;53.608;9.958;2023-02-11T19:25:02;23.70;;;9.97;;
13855;SDS011;6998;53.608;9.958;2023-02-11T19:35:36;24.03;;;9.67;;
13855;SDS011;6998;53.608;9.958;2023-02-11T19:38:04;28.90;;;10.10;;
13855;SDS011;6998;53.608;9.958;2023-02-11T19:40:31;23.13;;;10.13;;
13855;SDS011;6998;53.608;9.958;2023-02-11T19:43:04;28.37;;;10.23;;
13855;SDS011;6998;53.608;9.958;2023-02-11T19:45:40;24.73;;;10.23;;
13855;SDS011;6998;53.608;9.958;2023-02-11T19:57:58;19.83;;;9.13;;
13855;SDS011;6998;53.608;9.958;2023-02-11T20:15:43;32.90;;;10.23;;
13855;SDS011;6998;53.608;9.958;2023-02-11T20:38:31;36.83;;;11.57;;
13855;SDS011;6998;53.608;9.958;2023-02-11T20:41:04;29.70;;;11.00;;
13855;SDS011;6998;53.608;9.958;2023-02-11T20:43:33;34.13;;;13.17;;
13855;SDS011;6998;53.608;9.958;2023-02-11T20:46:02;30.80;;;12.60;;
13855;SDS011;6998;53.608;9.958;2023-02-11T20:48:30;30.13;;;11.30;;
13855;SDS011;6998;53.608;9.958;2023-02-11T20:51:05;29.93;;;11.33;;
13855;SDS011;6998;53.608;9.958;2023-02-11T20:53:34;31.67;;;11.40;;
13855;SDS011;6998;53.608;9.958;2023-02-11T20:56:03;36.40;;;12.33;;
13855;SDS011;6998;53.608;9.958;2023-02-11T20:58:34;35.03;;;13.07;;
13855;SDS011;6998;53.608;9.958;2023-02-11T21:01:07;31.80;;;12.52;;
13855;SDS011;6998;53.608;9.958;2023-02-11T21:03:36;36.33;;;12.97;;
13855;SDS011;6998;53.608;9.958;2023-02-11T21:06:06;34.30;;;16.30;;
13855;SDS011;6998;53.608;9.958;2023-02-11T21:08:33;37.67;;;16.83;;
13855;SDS011;6998;53.608;9.958;2023-02-11T21:11:01;42.67;;;19.03;;
13855;SDS011;6998;53.608;9.958;2023-02-11T21:13:32;31.37;;;18.67;;
13855;SDS011;6998;53.608;9.958;2023-02-11T21:16:00;42.40;;;15.10;;
13855;SDS011;6998;53.608;9.958;2023-02-11T21:18:36;36.43;;;15.57;;
13855;SDS011;6998;53.608;9.958;2023-02-11T21:24:03;34.63;;;13.07;;
13855;SDS011;6998;53.608;9.958;2023-02-11T21:26:32;31.37;;;13.33;;
13855;SDS011;6998;53.608;9.958;2023-02-11T21:29:00;29.53;;;13.27;;
13855;SDS011;6998;53.608;9.958;2023-02-11T21:31:29;36.90;;;16.50;;
13855;SDS011;6998;53.608;9.958;2023-02-11T21:33:58;39.43;;;16.20;;
13855;SDS011;6998;53.608;9.958;2023-02-11T21:36:26;29.97;;;13.83;;
13855;SDS011;6998;53.608;9.958;2023-02-11T21:38:56;33.07;;;14.57;;
13855;SDS011;6998;53.608;9.958;2023-02-11T21:41:24;26.67;;;13.77;;
13855;SDS011;6998;53.608;9.958;2023-02-11T21:43:52;36.73;;;14.83;;
13855;SDS011;6998;53.608;9.958;2023-02-11T21:46:20;44.37;;;23.97;;
13855;SDS011;6998;53.608;9.958;2023-02-11T21:48:49;36.40;;;16.37;;
13855;SDS011;6998;53.608;9.958;2023-02-11T21:51:18;56.07;;;27.10;;
13855;SDS011;6998;53.608;9.958;2023-02-11T21:56:59;30.93;;;12.10;;
13855;SDS011;6998;53.608;9.958;2023-02-11T21:59:27;42.10;;;17.93;;
13855;SDS011;6998;53.608;9.958;2023-02-11T22:01:55;40.03;;;19.77;;
13855;SDS011;6998;53.608;9.958;2023-02-11T22:04:24;34.60;;;15.60;;
13855;SDS011;6998;53.608;9.958;2023-02-11T22:06:51;29.60;;;15.70;;
13855;SDS011;6998;53.608;9.958;2023-02-11T22:09:22;33.93;;;17.47;;
13855;SDS011;6998;53.608;9.958;2023-02-11T22:11:49;32.30;;;16.70;;
13855;SDS011;6998;53.608;9.958;2023-02-11T22:14:17;31.00;;;15.60;;
13855;SDS011;6998;53.608;9.958;2023-02-11T22:16:57;26.40;;;12.10;;
13855;SDS011;6998;53.608;9.958;2023-02-11T22:19:29;47.47;;;26.60;;
13855;SDS011;6998;53.608;9.958;2023-02-11T22:21:58;27.23;;;15.47;;
13855;SDS011;6998;53.608;9.958;2023-02-11T22:28:15;25.80;;;14.67;;
13855;SDS011;6998;53.608;9.958;2023-02-11T22:30:56;22.87;;;13.40;;
13855;SDS011;6998;53.608;9.958;2023-02-11T22:36:33;21.97;;;11.03;;
13855;SDS011;6998;53.608;9.958;2023-02-11T22:39:20;18.57;;;10.03;;
13855;SDS011;6998;53.608;9.958;2023-02-11T22:41:58;19.97;;;11.27;;
13855;SDS011;6998;53.608;9.958;2023-02-11T22:44:27;20.47;;;11.50;;
13855;SDS011;6998;53.608;9.958;2023-02-11T22:50:24;20.23;;;8.97;;
13855;SDS011;6998;53.608;9.958;2023-02-11T22:53:32;18.50;;;8.67;;
